Time;durP1;ratioP1;P1;durP2;ratioP2;P2;SDS_P1;SDS_P2;PMS_P1;PMS_P2;Temp;Humidity;BMP_temperature;BMP_pressure;BME280_temperature;BME280_humidity;BME280_pressure;Samples;Min_cycle;Max_cycle;Signal;HPM_P1;HPM_P2
2021/09/26 00:00:21;;;;;;;6.32;5.18;;;;;21.70;101258.00;;;;5065968;28;20237;-80
2021/09/26 00:02:48;;;;;;;7.82;5.63;;;;;21.70;101263.00;;;;5071302;28;20198;-81
2021/09/26 00:05:17;;;;;;;7.07;5.45;;;;;21.60;101260.00;;;;5051232;28;20192;-81
2021/09/26 00:07:44;;;;;;;9.13;5.72;;;;;21.60;101256.00;;;;5051745;28;20207;-81
2021/09/26 00:10:14;;;;;;;7.13;5.22;;;;;21.60;101254.00;;;;5052218;28;20199;-81
2021/09/26 00:12:42;;;;;;;6.70;5.40;;;;;21.60;101252.00;;;;5051851;28;20199;-81
2021/09/26 00:15:13;;;;;;;8.98;5.32;;;;;21.50;101254.00;;;;5051706;28;20200;-80
2021/09/26 00:17:40;;;;;;;8.40;5.50;;;;;21.50;101256.00;;;;5059450;28;20188;-81
2021/09/26 00:20:09;;;;;;;7.35;5.35;;;;;21.50;101248.00;;;;5051478;28;20228;-81
2021/09/26 00:22:37;;;;;;;8.20;4.93;;;;;21.50;101252.00;;;;5051528;28;20210;-81
2021/09/26 00:25:06;;;;;;;6.90;5.55;;;;;21.50;101240.00;;;;5051594;28;20211;-81
2021/09/26 00:27:35;;;;;;;6.00;4.63;;;;;21.50;101245.00;;;;5058181;28;20203;-81
2021/09/26 00:30:03;;;;;;;7.25;5.53;;;;;21.50;101248.00;;;;5066331;28;20210;-81
2021/09/26 00:32:30;;;;;;;8.57;4.50;;;;;21.40;101251.00;;;;5051162;28;20533;-80
2021/09/26 00:34:57;;;;;;;8.52;5.35;;;;;21.40;101256.00;;;;5069190;28;20202;-80
2021/09/26 00:37:25;;;;;;;8.90;5.75;;;;;21.40;101258.00;;;;5071287;28;20203;-81
2021/09/26 00:39:52;;;;;;;6.38;5.13;;;;;21.40;101255.00;;;;5070742;28;20236;-81
2021/09/26 00:42:19;;;;;;;7.18;5.43;;;;;21.40;101254.00;;;;5071223;28;20234;-80
2021/09/26 00:44:48;;;;;;;7.60;5.38;;;;;21.40;101254.00;;;;5060832;28;20204;-81
2021/09/26 00:47:15;;;;;;;6.57;5.25;;;;;21.40;101255.00;;;;5050808;28;20568;-81
2021/09/26 00:49:42;;;;;;;6.25;5.00;;;;;21.40;101251.00;;;;5051285;28;20222;-81
2021/09/26 00:52:10;;;;;;;6.15;4.85;;;;;21.40;101252.00;;;;5069572;28;20664;-81
2021/09/26 00:54:38;;;;;;;7.20;5.47;;;;;21.30;101247.00;;;;5070834;28;20210;-81
2021/09/26 00:57:06;;;;;;;7.20;5.15;;;;;21.40;101255.00;;;;5065595;28;20661;-81
2021/09/26 00:59:33;;;;;;;9.40;5.60;;;;;21.40;101252.00;;;;5050470;28;20693;-81
2021/09/26 01:02:02;;;;;;;7.38;5.07;;;;;21.30;101246.00;;;;5049980;28;20202;-81
2021/09/26 01:04:30;;;;;;;8.05;5.38;;;;;21.40;101251.00;;;;5065931;28;20195;-81
2021/09/26 01:07:03;;;;;;;6.13;5.32;;;;;21.30;101251.00;;;;5066315;28;21025;-80
2021/09/26 01:09:40;;;;;;;8.38;5.72;;;;;21.30;101251.00;;;;5049643;28;20591;-80
2021/09/26 01:12:16;;;;;;;6.93;5.75;;;;;21.30;101248.00;;;;5049593;28;20206;-81
2021/09/26 01:14:51;;;;;;;8.73;6.28;;;;;21.30;101251.00;;;;5049846;28;20291;-81
2021/09/26 01:17:27;;;;;;;9.02;5.38;;;;;21.30;101245.00;;;;5061366;28;20217;-81
2021/09/26 01:20:35;;;;;;;7.45;5.10;;;;;21.20;101248.00;;;;5069896;28;20633;-81
2021/09/26 01:23:31;;;;;;;7.47;5.30;;;;;21.30;101238.00;;;;5070357;28;20198;-81
2021/09/26 01:26:07;;;;;;;11.38;5.43;;;;;21.40;101242.00;;;;5055327;28;20204;-81
2021/09/26 01:28:45;;;;;;;6.75;5.53;;;;;21.30;101246.00;;;;5067237;28;20188;-81
2021/09/26 01:31:16;;;;;;;6.82;5.78;;;;;21.30;101237.00;;;;5070037;28;20203;-81
2021/09/26 01:33:46;;;;;;;6.30;5.18;;;;;21.40;101237.00;;;;5060354;28;20203;-81
2021/09/26 01:36:20;;;;;;;9.05;5.47;;;;;21.30;101238.00;;;;5050131;28;20226;-81
2021/09/26 01:38:54;;;;;;;10.38;6.15;;;;;21.30;101238.00;;;;5050274;28;20200;-81
2021/09/26 01:41:29;;;;;;;8.15;6.15;;;;;21.30;101234.00;;;;5055079;28;20238;-80
2021/09/26 01:44:00;;;;;;;8.25;6.75;;;;;21.30;101229.00;;;;5069924;28;20194;-81
2021/09/26 01:46:32;;;;;;;7.85;6.18;;;;;21.30;101223.00;;;;5058609;28;20215;-81
2021/09/26 01:49:04;;;;;;;7.85;5.43;;;;;21.30;101226.00;;;;5065643;28;20199;-81
2021/09/26 01:51:35;;;;;;;7.75;6.15;;;;;21.30;101223.00;;;;5069498;28;20214;-81
2021/09/26 01:54:04;;;;;;;7.63;6.03;;;;;21.30;101216.00;;;;5069520;28;20669;-81
2021/09/26 01:56:34;;;;;;;8.82;6.38;;;;;21.30;101210.00;;;;5069934;28;20202;-81
2021/09/26 01:59:02;;;;;;;7.47;6.15;;;;;21.30;101207.00;;;;5057856;28;20211;-81
2021/09/26 02:01:31;;;;;;;10.18;6.55;;;;;21.30;101207.00;;;;5060575;28;20262;-80
2021/09/26 02:03:59;;;;;;;8.02;6.40;;;;;21.30;101206.00;;;;5068541;28;20699;-81
2021/09/26 02:06:26;;;;;;;8.57;6.07;;;;;21.30;101207.00;;;;5069565;28;20191;-81
2021/09/26 02:08:54;;;;;;;8.35;6.32;;;;;21.30;101216.00;;;;5067314;28;20195;-81
2021/09/26 02:11:22;;;;;;;8.73;6.50;;;;;21.30;101210.00;;;;5053165;28;20673;-81
2021/09/26 02:13:52;;;;;;;8.20;5.78;;;;;21.30;101211.00;;;;5049694;28;20615;-81
2021/09/26 02:16:20;;;;;;;8.55;6.38;;;;;21.30;101204.00;;;;5056434;28;20684;-81
2021/09/26 02:18:50;;;;;;;5.68;4.70;;;;;21.30;101201.00;;;;5049070;28;20203;-81
2021/09/26 02:21:18;;;;;;;8.88;6.35;;;;;21.30;101205.00;;;;5048917;28;20899;-81
2021/09/26 02:23:45;;;;;;;7.93;5.78;;;;;21.30;101205.00;;;;5049341;28;20219;-81
2021/09/26 02:26:13;;;;;;;8.10;6.07;;;;;21.30;101201.00;;;;5049299;28;20204;-81
2021/09/26 02:28:41;;;;;;;7.57;6.28;;;;;21.30;101206.00;;;;5049214;28;20199;-81
2021/09/26 02:31:09;;;;;;;7.53;6.03;;;;;21.30;101198.00;;;;5053926;28;20208;-81
2021/09/26 02:33:37;;;;;;;8.63;6.80;;;;;21.30;101205.00;;;;5049311;28;20697;-81
2021/09/26 02:36:08;;;;;;;13.75;6.55;;;;;21.20;101211.00;;;;5049019;28;20294;-80
2021/09/26 02:38:37;;;;;;;8.13;6.60;;;;;21.20;101214.00;;;;5049127;28;20231;-81
2021/09/26 02:41:13;;;;;;;14.32;6.03;;;;;21.20;101216.00;;;;5048802;28;20231;-81
2021/09/26 02:43:45;;;;;;;8.20;6.07;;;;;21.20;101210.00;;;;5047656;28;20592;-80
2021/09/26 02:46:18;;;;;;;9.70;5.90;;;;;21.20;101195.00;;;;5049066;28;20665;-81
2021/09/26 02:48:46;;;;;;;9.05;6.00;;;;;21.20;101205.00;;;;5048959;28;20203;-81
2021/09/26 02:51:14;;;;;;;10.20;6.63;;;;;21.20;101210.00;;;;5066095;28;20195;-81
2021/09/26 02:53:43;;;;;;;7.25;5.35;;;;;21.20;101205.00;;;;5067391;28;20198;-80
2021/09/26 02:56:11;;;;;;;9.38;6.53;;;;;21.20;101212.00;;;;5068604;28;20809;-81
2021/09/26 02:58:40;;;;;;;8.48;5.85;;;;;21.20;101204.00;;;;5062058;28;20196;-81
2021/09/26 03:01:07;;;;;;;8.88;6.40;;;;;21.20;101209.00;;;;5047910;28;20228;-80
2021/09/26 03:03:34;;;;;;;9.35;6.35;;;;;21.20;101212.00;;;;5048766;28;20666;-81
2021/09/26 03:06:01;;;;;;;10.68;6.03;;;;;21.20;101213.00;;;;5052080;28;20252;-81
2021/09/26 03:08:30;;;;;;;11.60;6.10;;;;;21.20;101212.00;;;;5067696;28;20206;-81
2021/09/26 03:11:00;;;;;;;8.00;5.95;;;;;21.20;101210.00;;;;5067163;28;20206;-81
2021/09/26 03:13:28;;;;;;;7.63;6.43;;;;;21.20;101212.00;;;;5047632;28;20195;-80
2021/09/26 03:15:55;;;;;;;6.30;5.65;;;;;21.20;101210.00;;;;5048330;28;20215;-80
2021/09/26 03:18:23;;;;;;;8.88;6.20;;;;;21.20;101213.00;;;;5048519;28;20203;-81
2021/09/26 03:20:50;;;;;;;8.25;6.18;;;;;21.20;101209.00;;;;5047839;28;20231;-81
2021/09/26 03:23:18;;;;;;;7.95;6.20;;;;;21.20;101203.00;;;;5053267;28;20203;-80
2021/09/26 03:25:47;;;;;;;10.70;6.80;;;;;21.20;101207.00;;;;5068739;28;20206;-81
2021/09/26 03:28:14;;;;;;;8.63;6.90;;;;;21.20;101195.00;;;;5067464;28;20263;-81
2021/09/26 03:30:41;;;;;;;9.10;6.30;;;;;21.20;101195.00;;;;5068670;28;20198;-80
2021/09/26 03:33:08;;;;;;;6.50;5.68;;;;;21.20;101192.00;;;;5068463;28;20199;-81
2021/09/26 03:35:37;;;;;;;7.30;5.95;;;;;21.20;101186.00;;;;5062257;28;20191;-81
2021/09/26 03:38:04;;;;;;;8.95;5.72;;;;;21.30;101181.00;;;;5047988;28;20234;-81
2021/09/26 03:40:32;;;;;;;8.45;6.75;;;;;21.30;101186.00;;;;5055277;28;20313;-81
2021/09/26 03:43:00;;;;;;;9.75;5.97;;;;;21.30;101194.00;;;;5049756;28;20203;-80
2021/09/26 03:45:28;;;;;;;7.22;6.50;;;;;21.30;101192.00;;;;5055545;28;20187;-81
2021/09/26 03:47:56;;;;;;;8.18;6.43;;;;;21.30;101189.00;;;;5054583;28;20214;-80
2021/09/26 03:50:23;;;;;;;9.35;5.65;;;;;21.30;101174.00;;;;5052025;28;20191;-81
2021/09/26 03:52:51;;;;;;;9.80;7.35;;;;;21.30;101179.00;;;;5066445;28;20202;-81
2021/09/26 03:55:18;;;;;;;9.30;6.47;;;;;21.30;101180.00;;;;5051303;28;20202;-81
2021/09/26 03:57:46;;;;;;;10.38;6.82;;;;;21.30;101169.00;;;;5060616;28;20199;-81
2021/09/26 04:00:19;;;;;;;7.00;5.28;;;;;21.30;101173.00;;;;5063967;28;20241;-81
2021/09/26 04:02:47;;;;;;;8.02;6.18;;;;;21.30;101176.00;;;;5062524;28;20198;-81
2021/09/26 04:05:14;;;;;;;9.50;6.97;;;;;21.40;101177.00;;;;5048795;28;20199;-81
2021/09/26 04:07:41;;;;;;;7.15;5.78;;;;;21.40;101175.00;;;;5061149;28;20192;-80
2021/09/26 04:10:10;;;;;;;7.03;6.00;;;;;21.40;101171.00;;;;5058701;28;20558;-81
2021/09/26 04:12:38;;;;;;;9.68;6.82;;;;;21.40;101175.00;;;;5058002;28;20211;-81
2021/09/26 04:15:06;;;;;;;9.90;6.30;;;;;21.40;101167.00;;;;5064679;28;20203;-81
2021/09/26 04:17:35;;;;;;;9.00;6.65;;;;;21.40;101173.00;;;;5052263;28;20210;-80
2021/09/26 04:20:04;;;;;;;7.43;6.07;;;;;21.40;101178.00;;;;5058583;28;20195;-81
2021/09/26 04:22:31;;;;;;;7.18;5.65;;;;;21.40;101168.00;;;;5054773;28;20200;-82
2021/09/26 04:24:59;;;;;;;7.65;5.65;;;;;21.40;101167.00;;;;5055669;28;20206;-81
2021/09/26 04:27:26;;;;;;;10.57;6.22;;;;;21.40;101172.00;;;;5058649;28;20199;-81
2021/09/26 04:29:54;;;;;;;8.65;6.20;;;;;21.40;101165.00;;;;5065900;28;20218;-81
2021/09/26 04:32:22;;;;;;;9.20;6.00;;;;;21.50;101166.00;;;;5055462;28;20214;-81
2021/09/26 04:34:51;;;;;;;6.53;5.75;;;;;21.50;101169.00;;;;5051354;28;20200;-80
2021/09/26 04:37:18;;;;;;;8.20;6.55;;;;;21.50;101171.00;;;;5067966;28;20656;-81
2021/09/26 04:39:45;;;;;;;7.78;6.05;;;;;21.50;101164.00;;;;5062443;28;20218;-81
2021/09/26 04:42:13;;;;;;;7.32;6.28;;;;;21.50;101171.00;;;;5057173;28;20231;-81
2021/09/26 04:44:40;;;;;;;9.23;6.00;;;;;21.50;101174.00;;;;5060791;28;20199;-80
2021/09/26 04:47:07;;;;;;;8.55;6.32;;;;;21.50;101168.00;;;;5058934;28;20712;-81
2021/09/26 04:49:35;;;;;;;7.35;5.57;;;;;21.50;101173.00;;;;5050145;28;21019;-81
2021/09/26 04:52:04;;;;;;;9.82;6.60;;;;;21.50;101173.00;;;;5049673;28;20210;-81
2021/09/26 04:54:31;;;;;;;8.80;6.45;;;;;21.50;101178.00;;;;5049737;28;20233;-80
2021/09/26 04:56:59;;;;;;;9.32;6.28;;;;;21.50;101176.00;;;;5049955;28;20211;-81
2021/09/26 04:59:26;;;;;;;7.70;5.93;;;;;21.50;101176.00;;;;5050096;28;20690;-81
2021/09/26 05:01:53;;;;;;;7.22;6.00;;;;;21.50;101178.00;;;;5059259;28;20701;-81
2021/09/26 05:04:21;;;;;;;7.45;6.18;;;;;21.60;101174.00;;;;5059261;28;20210;-80
2021/09/26 05:06:49;;;;;;;8.65;6.45;;;;;21.60;101175.00;;;;5055701;28;20196;-80
2021/09/26 05:09:17;;;;;;;8.15;6.13;;;;;21.60;101180.00;;;;5058644;28;20684;-81
2021/09/26 05:11:45;;;;;;;8.77;5.68;;;;;21.60;101183.00;;;;5057923;28;20202;-81
2021/09/26 05:14:12;;;;;;;8.00;5.88;;;;;21.60;101182.00;;;;5050230;28;20623;-81
2021/09/26 05:16:39;;;;;;;9.23;6.38;;;;;21.60;101184.00;;;;5049800;28;20199;-81
2021/09/26 05:19:06;;;;;;;9.48;6.35;;;;;21.60;101186.00;;;;5057996;28;20287;-80
2021/09/26 05:21:34;;;;;;;8.07;5.60;;;;;21.60;101184.00;;;;5059081;28;20697;-80
2021/09/26 05:24:01;;;;;;;9.07;5.93;;;;;21.60;101181.00;;;;5049928;28;20200;-81
2021/09/26 05:26:30;;;;;;;9.70;6.65;;;;;21.60;101178.00;;;;5049116;28;20206;-81
2021/09/26 05:28:57;;;;;;;8.40;6.70;;;;;21.60;101178.00;;;;5050468;28;20211;-81
2021/09/26 05:31:24;;;;;;;8.98;6.75;;;;;21.60;101183.00;;;;5057471;28;20200;-80
2021/09/26 05:33:51;;;;;;;8.05;6.28;;;;;21.60;101181.00;;;;5064950;28;20196;-81
2021/09/26 05:36:19;;;;;;;6.60;5.70;;;;;21.60;101179.00;;;;5049724;28;20199;-80
2021/09/26 05:38:46;;;;;;;8.15;6.85;;;;;21.60;101179.00;;;;5053153;28;20206;-80
2021/09/26 05:41:13;;;;;;;6.47;5.65;;;;;21.60;101186.00;;;;5059696;28;20226;-81
2021/09/26 05:43:42;;;;;;;9.18;6.90;;;;;21.60;101186.00;;;;5057723;28;20202;-80
2021/09/26 05:46:09;;;;;;;6.80;5.60;;;;;21.60;101187.00;;;;5047722;28;20214;-80
2021/09/26 05:48:36;;;;;;;8.43;6.30;;;;;21.60;101192.00;;;;5047732;28;20215;-80
2021/09/26 05:51:04;;;;;;;8.40;5.70;;;;;21.60;101193.00;;;;5052206;28;20203;-80
2021/09/26 05:53:31;;;;;;;12.63;6.05;;;;;21.60;101195.00;;;;5059852;28;20200;-80
2021/09/26 05:55:58;;;;;;;9.25;6.28;;;;;21.60;101194.00;;;;5054814;28;20717;-80
2021/09/26 05:58:25;;;;;;;8.80;6.28;;;;;21.60;101191.00;;;;5053539;28;20203;-80
2021/09/26 06:00:54;;;;;;;11.50;5.88;;;;;21.60;101195.00;;;;5056824;28;20219;-80
2021/09/26 06:03:21;;;;;;;7.40;5.82;;;;;21.60;101191.00;;;;5056860;28;20203;-80
2021/09/26 06:05:49;;;;;;;7.80;6.05;;;;;21.60;101189.00;;;;5057677;28;20202;-80
2021/09/26 06:08:16;;;;;;;6.82;6.07;;;;;21.70;101187.00;;;;5054902;28;20187;-80
2021/09/26 06:10:43;;;;;;;9.55;7.15;;;;;21.60;101196.00;;;;5056921;28;20205;-80
2021/09/26 06:13:10;;;;;;;8.30;6.20;;;;;21.70;101193.00;;;;5055678;28;20198;-80
2021/09/26 06:15:38;;;;;;;8.32;6.22;;;;;21.70;101192.00;;;;5050511;28;20198;-80
2021/09/26 06:18:07;;;;;;;8.07;6.40;;;;;21.70;101193.00;;;;5050297;28;20203;-81
2021/09/26 06:20:34;;;;;;;8.50;6.55;;;;;21.70;101189.00;;;;5052972;28;20195;-80
2021/09/26 06:23:02;;;;;;;8.23;6.80;;;;;21.70;101187.00;;;;5049165;28;20282;-81
2021/09/26 06:25:29;;;;;;;9.50;6.75;;;;;21.70;101183.00;;;;5056143;28;20287;-81
2021/09/26 06:28:00;;;;;;;7.93;6.25;;;;;21.70;101180.00;;;;5056723;28;20579;-81
2021/09/26 06:30:28;;;;;;;7.20;5.53;;;;;21.70;101173.00;;;;5061542;28;20672;-82
2021/09/26 06:32:55;;;;;;;9.18;6.03;;;;;21.70;101174.00;;;;5053326;28;20203;-81
2021/09/26 06:35:27;;;;;;;8.45;6.63;;;;;21.80;101173.00;;;;5056997;28;20359;-82
2021/09/26 06:37:58;;;;;;;6.63;5.95;;;;;21.80;101171.00;;;;5057866;28;20195;-81
2021/09/26 06:40:25;;;;;;;7.93;6.45;;;;;21.80;101179.00;;;;5056002;28;20216;-81
2021/09/26 06:42:53;;;;;;;9.90;6.97;;;;;21.80;101193.00;;;;5051750;28;20230;-82
2021/09/26 06:45:24;;;;;;;7.95;6.43;;;;;21.80;101193.00;;;;5050897;28;20207;-83
2021/09/26 06:47:52;;;;;;;9.73;6.45;;;;;21.90;101193.00;;;;5049173;28;20234;-82
2021/09/26 06:50:19;;;;;;;8.30;7.05;;;;;21.90;101201.00;;;;5051106;28;20191;-82
2021/09/26 06:52:48;;;;;;;8.23;6.72;;;;;21.90;101206.00;;;;5048153;28;20199;-83
2021/09/26 06:55:16;;;;;;;7.57;6.47;;;;;21.90;101215.00;;;;5055724;28;20199;-81
2021/09/26 06:57:43;;;;;;;6.88;5.68;;;;;21.90;101218.00;;;;5050062;28;20567;-83
2021/09/26 07:00:11;;;;;;;8.63;7.28;;;;;22.00;101215.00;;;;5056048;28;20194;-83
2021/09/26 07:02:40;;;;;;;8.32;6.13;;;;;22.00;101217.00;;;;5047656;28;20755;-83
2021/09/26 07:05:09;;;;;;;8.20;6.50;;;;;22.00;101214.00;;;;5053968;28;20200;-81
2021/09/26 07:07:36;;;;;;;10.98;6.95;;;;;22.00;101225.00;;;;5052774;28;20576;-82
2021/09/26 07:10:06;;;;;;;7.78;6.25;;;;;22.00;101228.00;;;;5053190;28;20196;-80
2021/09/26 07:12:33;;;;;;;9.20;6.85;;;;;22.10;101226.00;;;;5052403;28;20833;-81
2021/09/26 07:15:01;;;;;;;8.90;6.43;;;;;22.10;101233.00;;;;5054558;28;20270;-81
2021/09/26 07:17:30;;;;;;;10.60;7.47;;;;;22.10;101225.00;;;;5050473;28;20654;-81
2021/09/26 07:19:58;;;;;;;9.82;6.68;;;;;22.20;101230.00;;;;5050711;28;20196;-80
2021/09/26 07:22:25;;;;;;;8.77;7.05;;;;;22.20;101216.00;;;;5048268;28;20342;-81
2021/09/26 07:24:53;;;;;;;11.27;7.03;;;;;22.20;101230.00;;;;5054444;28;20206;-81
2021/09/26 07:27:22;;;;;;;9.65;7.57;;;;;22.20;101224.00;;;;5055032;28;20199;-81
2021/09/26 07:29:50;;;;;;;8.88;7.00;;;;;22.30;101218.00;;;;5046498;28;20202;-81
2021/09/26 07:32:18;;;;;;;10.30;7.82;;;;;22.40;101221.00;;;;5053115;28;20187;-83
2021/09/26 07:34:45;;;;;;;8.88;7.00;;;;;22.50;101228.00;;;;5051278;28;20207;-81
2021/09/26 07:37:13;;;;;;;8.00;7.20;;;;;22.50;101218.00;;;;5050648;28;20203;-81
2021/09/26 07:39:40;;;;;;;11.65;7.88;;;;;22.60;101224.00;;;;5058704;28;20766;-82
2021/09/26 07:42:08;;;;;;;10.15;7.18;;;;;22.70;101226.00;;;;5047904;28;20227;-81
2021/09/26 07:44:36;;;;;;;9.85;7.07;;;;;22.70;101233.00;;;;5051360;28;20199;-81
2021/09/26 07:47:04;;;;;;;9.15;6.90;;;;;22.80;101230.00;;;;5067947;28;20206;-83
2021/09/26 07:49:31;;;;;;;10.50;7.75;;;;;22.80;101228.00;;;;5068236;28;20234;-81
2021/09/26 07:51:58;;;;;;;8.45;7.00;;;;;22.90;101232.00;;;;5068012;28;20210;-80
2021/09/26 07:54:26;;;;;;;10.38;7.25;;;;;22.90;101239.00;;;;5049663;28;20676;-80
2021/09/26 07:56:53;;;;;;;9.93;8.00;;;;;23.00;101243.00;;;;5048407;28;20211;-80
2021/09/26 07:59:20;;;;;;;7.93;7.13;;;;;23.00;101236.00;;;;5047864;28;20218;-81
2021/09/26 08:01:49;;;;;;;9.98;8.15;;;;;23.00;101241.00;;;;5051186;28;20227;-80
2021/09/26 08:04:16;;;;;;;9.90;7.25;;;;;23.10;101249.00;;;;5052132;28;20880;-79
2021/09/26 08:06:44;;;;;;;9.73;7.32;;;;;23.10;101261.00;;;;5051408;28;20196;-78
2021/09/26 08:09:11;;;;;;;11.70;7.32;;;;;23.20;101266.00;;;;5051821;28;20199;-79
2021/09/26 08:11:38;;;;;;;10.30;7.45;;;;;23.20;101277.00;;;;5051961;28;20573;-79
2021/09/26 08:14:05;;;;;;;9.23;7.82;;;;;23.30;101286.00;;;;5059643;28;20214;-78
2021/09/26 08:16:33;;;;;;;10.45;7.65;;;;;23.30;101285.00;;;;5051468;28;20692;-79
2021/09/26 08:19:01;;;;;;;11.25;8.35;;;;;23.30;101275.00;;;;5070178;28;20198;-79
2021/09/26 08:21:29;;;;;;;8.55;7.32;;;;;23.40;101271.00;;;;5069172;28;20198;-79
2021/09/26 08:23:56;;;;;;;10.88;7.97;;;;;23.40;101265.00;;;;5050633;28;20200;-78
2021/09/26 08:26:23;;;;;;;9.07;6.82;;;;;23.50;101264.00;;;;5050711;28;20210;-79
2021/09/26 08:28:51;;;;;;;9.82;8.43;;;;;23.50;101262.00;;;;5051131;28;20228;-79
2021/09/26 08:31:18;;;;;;;9.52;8.13;;;;;23.60;101267.00;;;;5051041;28;20207;-78
2021/09/26 08:33:45;;;;;;;8.95;7.78;;;;;23.70;101261.00;;;;5051205;28;20689;-78
2021/09/26 08:36:14;;;;;;;9.73;7.85;;;;;23.80;101263.00;;;;5051336;28;20198;-80
2021/09/26 08:38:41;;;;;;;11.65;8.45;;;;;23.90;101258.00;;;;5050204;28;20192;-80
2021/09/26 08:41:09;;;;;;;9.88;8.35;;;;;24.10;101264.00;;;;5051413;28;20223;-79
2021/09/26 08:43:36;;;;;;;11.00;8.60;;;;;24.20;101264.00;;;;5049462;28;20229;-81
2021/09/26 08:46:04;;;;;;;8.48;7.45;;;;;24.20;101266.00;;;;5050600;28;20199;-82
2021/09/26 08:48:32;;;;;;;9.18;7.53;;;;;24.30;101276.00;;;;5050803;28;20203;-82
2021/09/26 08:50:59;;;;;;;8.95;8.05;;;;;24.40;101278.00;;;;5049826;28;20215;-83
2021/09/26 08:53:28;;;;;;;9.75;7.85;;;;;24.50;101275.00;;;;5050237;28;20203;-83
2021/09/26 08:55:56;;;;;;;10.95;8.10;;;;;24.60;101272.00;;;;5050035;28;20214;-82
2021/09/26 08:58:24;;;;;;;8.65;7.55;;;;;24.70;101269.00;;;;5052738;28;20284;-83
2021/09/26 09:00:51;;;;;;;9.55;8.10;;;;;24.80;101264.00;;;;5050250;28;20203;-83
2021/09/26 09:03:19;;;;;;;9.88;7.35;;;;;24.90;101271.00;;;;5050467;28;20228;-83
2021/09/26 09:05:52;;;;;;;11.00;8.23;;;;;25.00;101271.00;;;;5049578;28;20612;-83
2021/09/26 09:08:22;;;;;;;10.82;8.50;;;;;25.20;101275.00;;;;5050545;28;20196;-83
2021/09/26 09:10:53;;;;;;;8.40;7.43;;;;;25.20;101281.00;;;;5049795;28;20204;-83
2021/09/26 09:13:22;;;;;;;9.30;8.07;;;;;25.40;101285.00;;;;5049324;28;20210;-82
2021/09/26 09:15:54;;;;;;;9.68;8.10;;;;;25.50;101278.00;;;;5058846;28;20195;-83
2021/09/26 09:18:22;;;;;;;10.00;7.53;;;;;25.60;101279.00;;;;5068944;28;20191;-82
2021/09/26 09:20:50;;;;;;;12.38;8.55;;;;;25.80;101280.00;;;;5059592;28;20211;-82
2021/09/26 09:23:20;;;;;;;9.00;8.00;;;;;25.90;101281.00;;;;5049064;28;20327;-82
2021/09/26 09:25:50;;;;;;;8.68;7.80;;;;;26.10;101286.00;;;;5049799;28;20624;-83
2021/09/26 09:28:19;;;;;;;9.13;8.00;;;;;26.20;101285.00;;;;5050078;28;20203;-83
2021/09/26 09:30:49;;;;;;;10.43;9.30;;;;;26.30;101285.00;;;;5049444;28;20196;-82
2021/09/26 09:33:17;;;;;;;11.20;8.60;;;;;26.50;101283.00;;;;5050127;28;20204;-83
2021/09/26 09:35:46;;;;;;;10.38;7.78;;;;;26.60;101282.00;;;;5049487;28;20207;-83
2021/09/26 09:38:18;;;;;;;12.48;8.25;;;;;26.70;101289.00;;;;5062996;28;20221;-83
2021/09/26 09:40:51;;;;;;;8.93;7.50;;;;;26.90;101285.00;;;;5067949;28;20277;-83
2021/09/26 09:43:19;;;;;;;11.02;7.28;;;;;27.00;101291.00;;;;5067444;28;20218;-82
2021/09/26 09:45:51;;;;;;;8.70;7.82;;;;;27.10;101290.00;;;;5060832;28;20195;-83
2021/09/26 09:48:20;;;;;;;8.75;7.05;;;;;27.20;101291.00;;;;5068911;28;20201;-83
2021/09/26 09:50:57;;;;;;;11.48;7.70;;;;;27.30;101288.00;;;;5048373;28;20954;-83
2021/09/26 09:53:27;;;;;;;8.20;6.82;;;;;27.40;101290.00;;;;5048865;28;20206;-83
2021/09/26 09:56:17;;;;;;;8.80;7.38;;;;;27.40;101297.00;;;;5048538;28;20203;-83
2021/09/26 09:58:46;;;;;;;8.35;7.30;;;;;27.60;101305.00;;;;5048799;28;20672;-82
2021/09/26 10:01:16;;;;;;;9.07;7.40;;;;;27.70;101303.00;;;;5049188;28;20192;-83
2021/09/26 10:03:49;;;;;;;8.18;7.22;;;;;27.80;101303.00;;;;5048933;28;20222;-82
2021/09/26 10:06:32;;;;;;;10.07;7.53;;;;;27.80;101306.00;;;;5049253;28;20551;-83
2021/09/26 10:09:01;;;;;;;9.05;8.07;;;;;28.00;101296.00;;;;5049185;28;20269;-82
2021/09/26 10:11:32;;;;;;;9.07;7.03;;;;;28.10;101298.00;;;;5049359;28;20216;-83
2021/09/26 10:14:00;;;;;;;8.60;7.10;;;;;28.20;101305.00;;;;5047904;28;20207;-82
2021/09/26 10:16:28;;;;;;;8.68;6.88;;;;;28.30;101308.00;;;;5049281;28;20203;-83
2021/09/26 10:18:55;;;;;;;9.32;6.57;;;;;28.30;101297.00;;;;5049263;28;20199;-83
2021/09/26 10:21:23;;;;;;;10.45;8.70;;;;;28.40;101301.00;;;;5048922;28;20199;-82
2021/09/26 10:23:52;;;;;;;10.55;8.02;;;;;28.50;101297.00;;;;5048224;28;20223;-83
2021/09/26 10:26:24;;;;;;;8.85;7.95;;;;;28.50;101307.00;;;;5050121;28;20673;-84
2021/09/26 10:28:56;;;;;;;10.85;7.43;;;;;28.50;101301.00;;;;5063662;28;20190;-84
2021/09/26 10:31:25;;;;;;;8.23;7.07;;;;;28.60;101299.00;;;;5060357;28;20192;-83
2021/09/26 10:33:55;;;;;;;10.68;7.35;;;;;28.70;101302.00;;;;5048483;28;20203;-83
2021/09/26 10:36:24;;;;;;;10.18;7.40;;;;;28.80;101311.00;;;;5047788;28;20207;-83
2021/09/26 10:38:53;;;;;;;9.02;7.90;;;;;28.80;101313.00;;;;5047993;28;20211;-83
2021/09/26 10:41:21;;;;;;;7.97;7.18;;;;;28.90;101307.00;;;;5067676;28;20643;-83
2021/09/26 10:43:48;;;;;;;7.30;6.57;;;;;29.00;101313.00;;;;5049747;28;20227;-84
2021/09/26 10:46:20;;;;;;;9.55;7.43;;;;;29.00;101314.00;;;;5049017;28;20242;-82
2021/09/26 10:49:09;;;;;;;10.20;7.72;;;;;29.00;101312.00;;;;5048726;28;20203;-82
2021/09/26 10:51:56;;;;;;;10.40;7.80;;;;;29.00;101315.00;;;;5048669;28;20249;-82
2021/09/26 10:54:32;;;;;;;7.78;6.40;;;;;29.10;101316.00;;;;5055404;28;20655;-81
2021/09/26 10:57:24;;;;;;;8.07;6.88;;;;;29.00;101321.00;;;;5048129;28;20203;-81
2021/09/26 10:59:53;;;;;;;7.68;6.35;;;;;29.20;101315.00;;;;5047568;28;20206;-81
2021/09/26 11:02:44;;;;;;;8.35;7.25;;;;;29.10;101317.00;;;;5053716;28;20198;-84
2021/09/26 11:05:32;;;;;;;7.07;5.80;;;;;29.20;101310.00;;;;5068256;28;20190;-81
2021/09/26 11:08:01;;;;;;;7.25;6.55;;;;;29.40;101315.00;;;;5056308;28;20200;-81
2021/09/26 11:10:36;;;;;;;7.57;6.82;;;;;29.40;101322.00;;;;5048008;28;20211;-81
2021/09/26 11:13:14;;;;;;;10.70;7.78;;;;;29.40;101324.00;;;;5048038;28;20199;-82
2021/09/26 11:16:01;;;;;;;8.00;7.20;;;;;29.40;101320.00;;;;5047263;28;20202;-81
2021/09/26 11:18:54;;;;;;;7.22;6.47;;;;;29.40;101325.00;;;;5057329;28;20203;-82
2021/09/26 11:21:50;;;;;;;6.90;6.25;;;;;29.30;101332.00;;;;5047537;28;20674;-82
2021/09/26 11:24:33;;;;;;;7.43;6.72;;;;;29.30;101332.00;;;;5047902;28;20230;-83
2021/09/26 11:27:10;;;;;;;9.35;8.27;;;;;29.30;101326.00;;;;5048288;28;20585;-82
2021/09/26 11:30:13;;;;;;;10.20;8.05;;;;;29.30;101326.00;;;;5047888;28;20198;-81
2021/09/26 11:32:41;;;;;;;7.22;6.53;;;;;29.40;101323.00;;;;5046571;28;20191;-83
2021/09/26 11:35:41;;;;;;;9.50;8.57;;;;;29.30;101313.00;;;;5049023;28;20214;-81
2021/09/26 11:38:12;;;;;;;10.02;8.23;;;;;29.50;101321.00;;;;5052063;28;20213;-82
2021/09/26 11:41:01;;;;;;;9.45;8.45;;;;;29.40;101317.00;;;;5051381;28;20219;-82
2021/09/26 11:43:31;;;;;;;9.60;7.75;;;;;29.60;101312.00;;;;5051448;28;20227;-82
2021/09/26 11:46:00;;;;;;;8.45;7.18;;;;;29.60;101310.00;;;;5050856;28;20208;-82
2021/09/26 11:48:33;;;;;;;8.02;7.22;;;;;29.60;101311.00;;;;5050834;28;20207;-82
2021/09/26 11:51:06;;;;;;;7.95;6.80;;;;;29.60;101311.00;;;;5051213;28;20250;-82
2021/09/26 11:53:33;;;;;;;8.20;7.03;;;;;29.70;101305.00;;;;5051280;28;20211;-82
2021/09/26 11:56:10;;;;;;;7.97;7.18;;;;;29.70;101312.00;;;;5051419;28;20207;-82
2021/09/26 11:58:38;;;;;;;8.23;5.80;;;;;29.70;101310.00;;;;5050862;28;20207;-81
2021/09/26 12:01:05;;;;;;;8.95;7.70;;;;;29.80;101316.00;;;;5052092;28;20196;-82
2021/09/26 12:03:33;;;;;;;7.55;6.30;;;;;29.80;101302.00;;;;5051695;28;20222;-81
2021/09/26 12:06:01;;;;;;;10.65;7.97;;;;;29.80;101297.00;;;;5050957;28;20742;-82
2021/09/26 12:08:39;;;;;;;7.97;7.18;;;;;29.70;101302.00;;;;5051081;28;20345;-83
2021/09/26 12:11:08;;;;;;;7.32;6.50;;;;;29.90;101304.00;;;;5050648;28;20587;-83
2021/09/26 12:13:49;;;;;;;7.85;6.80;;;;;29.80;101301.00;;;;5051273;28;20800;-83
2021/09/26 12:16:18;;;;;;;7.97;6.68;;;;;30.00;101303.00;;;;5050713;28;20195;-82
2021/09/26 12:18:54;;;;;;;9.00;7.60;;;;;30.00;101297.00;;;;5050216;28;20215;-83